Terminal Aerodrome Forecast
Issued by NWS

Home | Current Version | Previous Version | Text Only | Print | Product List | Glossary On
Versions: 1 2 3 4 5 6 7 8 9 10 11 12
000
FTUS45 KRIW 211700
TAFWRL
TAF
KWRL 211720Z 2118/2218 VRB05KT P6SM SKC
     FM211900 15006KT P6SM SCT090
     FM220600 17006KT P6SM SCT100 BKN200
     FM221000 18005KT P6SM VCSH BKN100
     FM221600 20010G18KT P6SM VCSH FEW080 BKN150=

USA.gov is the U.S. government's official web portal to all federal, state and local government web resources and services.